createdAt,value
2019-05-22T00:03:59.623Z,33.05
2019-05-22T00:09:04.612Z,33.53
2019-05-22T00:14:07.053Z,31.45
2019-05-22T00:19:09.941Z,31.23
2019-05-22T00:24:12.576Z,30.73
2019-05-22T00:29:15.722Z,30.75
2019-05-22T00:34:27.150Z,31.20
2019-05-22T00:39:30.442Z,31.40
2019-05-22T00:44:34.895Z,31.47
2019-05-22T00:49:37.352Z,31.10
2019-05-22T00:54:57.843Z,31.80
2019-05-22T01:00:17.865Z,30.67
2019-05-22T01:05:21.192Z,32.42
2019-05-22T01:10:25.107Z,29.63
2019-05-22T01:15:28.963Z,29.20
2019-05-22T01:20:32.882Z,28.47
2019-05-22T01:25:35.454Z,27.67
2019-05-22T01:30:42.448Z,28.40
2019-05-22T01:36:02.491Z,29.80
2019-05-22T01:41:10.922Z,27.32
2019-05-22T01:46:15.094Z,27.93
2019-05-22T01:51:18.042Z,27.52
2019-05-22T01:56:21.088Z,28.35
2019-05-22T02:01:25.618Z,27.20
2019-05-22T02:06:28.135Z,25.75
2019-05-22T02:11:31.178Z,25.48
2019-05-22T02:16:34.221Z,25.17
2019-05-22T02:21:36.702Z,26.13
2019-05-22T02:26:40.485Z,25.73
2019-05-22T02:31:43.600Z,28.17
2019-05-22T02:36:46.178Z,28.90
2019-05-22T02:41:56.602Z,29.47
2019-05-22T02:47:16.944Z,30.25
2019-05-22T02:52:06.588Z,29.33
2019-05-22T02:57:10.507Z,29.93
2019-05-22T03:02:14.427Z,29.43
2019-05-22T03:07:17.530Z,29.10
2019-05-22T03:12:19.899Z,29.40
2019-05-22T03:17:27.657Z,31.70
2019-05-22T03:22:35.662Z,29.13
2019-05-22T03:27:39.684Z,30.10
2019-05-22T03:32:44.073Z,29.42
2019-05-22T03:37:46.471Z,30.50
2019-05-22T03:42:50.807Z,28.63
2019-05-22T03:47:54.145Z,28.60
2019-05-22T03:52:58.590Z,28.03
2019-05-22T03:58:00.995Z,28.10
2019-05-22T04:03:03.657Z,27.63
2019-05-22T04:08:08.345Z,26.90
2019-05-22T04:13:11.072Z,27.37
2019-05-22T04:18:15.002Z,26.68
2019-05-22T04:23:17.287Z,27.97
2019-05-22T04:28:19.937Z,27.37
2019-05-22T04:33:22.312Z,26.33
2019-05-22T04:38:25.414Z,23.47
2019-05-22T04:43:30.830Z,25.02
2019-05-22T04:48:35.039Z,24.63
2019-05-22T04:53:37.797Z,23.60
2019-05-22T04:58:40.252Z,23.37
2019-05-22T05:03:43.301Z,22.36
2019-05-22T05:08:46.034Z,21.27
2019-05-22T05:13:48.321Z,22.27
2019-05-22T05:18:51.135Z,22.23
2019-05-22T05:23:53.408Z,24.27
2019-05-22T05:28:56.214Z,20.70
2019-05-22T05:34:02.880Z,19.50
2019-05-22T05:44:08.255Z,18.73
2019-05-22T05:49:10.796Z,19.23
2019-05-22T05:54:14.516Z,18.90
2019-05-22T05:59:17.654Z,17.30
2019-05-22T06:04:34.015Z,16.20
2019-05-22T06:09:27.150Z,16.00
2019-05-22T06:14:30.980Z,15.73
2019-05-22T06:19:33.282Z,16.13
2019-05-22T06:24:37.157Z,15.07
2019-05-22T06:29:41.916Z,15.30
2019-05-22T06:34:44.299Z,15.17
2019-05-22T06:39:47.615Z,19.98
2019-05-22T06:44:49.976Z,13.62
2019-05-22T06:49:53.318Z,14.63
2019-05-22T06:54:55.946Z,14.98
2019-05-22T07:00:13.156Z,13.62
2019-05-22T07:05:03.587Z,14.30
2019-05-22T07:10:06.603Z,13.93
2019-05-22T07:15:11.999Z,13.22
2019-05-22T07:20:15.435Z,12.78
2019-05-22T07:25:17.980Z,12.73
2019-05-22T07:30:20.537Z,11.80
2019-05-22T07:35:24.058Z,11.88
2019-05-22T07:40:26.433Z,11.70
2019-05-22T07:45:30.781Z,13.28
2019-05-22T07:50:34.110Z,10.98
2019-05-22T07:55:36.503Z,12.82
2019-05-22T08:00:40.423Z,12.15
2019-05-22T08:05:44.403Z,11.90
2019-05-22T08:10:47.226Z,12.93
2019-05-22T08:15:50.158Z,12.18
2019-05-22T08:20:52.430Z,12.10
2019-05-22T08:25:56.142Z,12.33
2019-05-22T08:30:59.283Z,12.05
2019-05-22T08:36:02.321Z,12.10
2019-05-22T08:41:06.918Z,10.90
2019-05-22T08:46:09.849Z,10.82
2019-05-22T08:51:12.485Z,11.03
2019-05-22T08:56:15.099Z,10.40
2019-05-22T09:01:17.468Z,11.05
2019-05-22T09:06:20.010Z,10.88
2019-05-22T09:11:22.347Z,11.28
2019-05-22T09:16:25.381Z,11.73
2019-05-22T09:21:28.323Z,10.95
2019-05-22T09:26:31.978Z,10.03
2019-05-22T09:31:34.247Z,10.13
2019-05-22T09:36:38.077Z,10.87
2019-05-22T09:41:40.368Z,11.23
2019-05-22T09:46:42.636Z,10.32
2019-05-22T09:51:44.906Z,10.80
2019-05-22T09:56:47.264Z,10.80
2019-05-22T10:01:50.027Z,9.83
2019-05-22T10:06:52.293Z,10.65
2019-05-22T10:11:55.209Z,10.93
2019-05-22T10:16:57.488Z,10.13
2019-05-22T10:22:00.600Z,9.75
2019-05-22T10:27:03.365Z,10.40
2019-05-22T10:32:06.636Z,11.15
2019-05-22T10:37:09.256Z,9.85
2019-05-22T10:42:11.996Z,8.00
2019-05-22T10:47:17.911Z,8.65
2019-05-22T10:52:18.839Z,7.85
2019-05-22T10:57:21.504Z,9.00
2019-05-22T11:02:23.950Z,8.75
2019-05-22T11:07:26.486Z,8.25
2019-05-22T11:12:29.325Z,8.20
2019-05-22T11:17:31.602Z,8.45
2019-05-22T11:22:35.445Z,7.70
2019-05-22T11:27:38.902Z,7.60
2019-05-22T11:32:41.854Z,6.30
2019-05-22T11:37:44.531Z,6.10
2019-05-22T11:42:47.709Z,5.65
2019-05-22T11:47:50.376Z,5.65
2019-05-22T11:52:53.211Z,5.87
2019-05-22T11:57:55.878Z,5.45
2019-05-22T12:03:00.551Z,5.70
2019-05-22T12:08:03.314Z,5.47
2019-05-22T12:13:05.951Z,4.60
2019-05-22T12:18:10.685Z,4.22
2019-05-22T12:23:13.183Z,4.97
2019-05-22T12:28:15.837Z,4.12
2019-05-22T12:33:18.197Z,4.97
2019-05-22T12:38:21.622Z,4.50
2019-05-22T12:43:24.062Z,4.70
2019-05-22T12:48:26.954Z,4.50
2019-05-22T12:53:30.062Z,4.55
2019-05-22T12:58:32.885Z,4.50
2019-05-22T13:03:35.227Z,5.00
2019-05-22T13:08:38.265Z,4.55
2019-05-22T13:13:41.363Z,4.90
2019-05-22T13:18:44.602Z,4.55
2019-05-22T13:23:48.275Z,5.60
2019-05-22T13:28:51.339Z,7.78
2019-05-22T13:33:54.593Z,7.06
2019-05-22T13:38:57.101Z,7.65
2019-05-22T13:44:00.170Z,5.80
2019-05-22T13:49:02.512Z,7.60
2019-05-22T13:54:06.256Z,7.95
2019-05-22T13:59:08.692Z,7.65
2019-05-22T14:04:11.037Z,8.60
2019-05-22T14:09:20.686Z,8.40
2019-05-22T14:14:19.145Z,7.87
2019-05-22T14:19:21.526Z,7.96
2019-05-22T14:24:23.866Z,6.87
2019-05-22T14:29:26.301Z,5.17
2019-05-22T14:34:28.641Z,5.00
2019-05-22T14:39:31.418Z,4.80
2019-05-22T14:44:34.391Z,4.70
2019-05-22T14:49:36.960Z,4.28
2019-05-22T14:54:39.720Z,4.50
2019-05-22T14:59:42.036Z,3.70
2019-05-22T15:04:44.705Z,2.95
2019-05-22T15:09:47.107Z,3.58
2019-05-22T15:14:49.442Z,2.90
2019-05-22T15:19:51.966Z,2.90
2019-05-22T15:24:54.567Z,3.75
2019-05-22T15:29:57.028Z,3.33
2019-05-22T15:34:59.575Z,3.42
2019-05-22T15:40:03.345Z,3.58
2019-05-22T15:45:08.432Z,2.92
2019-05-22T15:50:11.238Z,3.45
2019-05-22T15:55:14.382Z,3.15
2019-05-22T16:00:19.099Z,3.60
2019-05-22T16:05:22.993Z,3.77
2019-05-22T16:10:26.928Z,4.00
2019-05-22T16:15:30.446Z,4.30
2019-05-22T16:20:33.414Z,3.92
2019-05-22T16:25:36.232Z,3.10
2019-05-22T16:30:39.399Z,4.12
2019-05-22T16:35:42.035Z,4.00
2019-05-22T16:40:45.269Z,3.47
2019-05-22T16:45:47.618Z,4.05
2019-05-22T16:50:51.199Z,3.70
2019-05-22T16:55:54.057Z,4.17
2019-05-22T17:00:57.342Z,4.12
2019-05-22T17:06:00.102Z,4.45
2019-05-22T17:11:04.206Z,4.60
2019-05-22T17:16:07.003Z,4.47
2019-05-22T17:21:09.673Z,5.28
2019-05-22T17:26:12.619Z,4.13
2019-05-22T17:31:15.235Z,4.62
2019-05-22T17:36:17.961Z,5.28
2019-05-22T17:41:21.487Z,6.75
2019-05-22T17:46:24.471Z,4.78
2019-05-22T17:51:26.837Z,4.83
2019-05-22T17:56:29.528Z,5.08
2019-05-22T18:01:31.963Z,6.00
2019-05-22T18:06:34.606Z,5.67
2019-05-22T18:11:36.993Z,5.90
2019-05-22T18:16:39.540Z,7.67
2019-05-22T18:21:42.397Z,8.28
2019-05-22T18:26:44.762Z,10.18
2019-05-22T18:31:47.417Z,9.65
2019-05-22T18:36:49.870Z,7.50
2019-05-22T18:41:52.202Z,8.23
2019-05-22T18:46:54.511Z,6.27
2019-05-22T18:51:57.224Z,8.38
2019-05-22T18:56:59.576Z,7.78
2019-05-22T19:02:02.083Z,6.28
2019-05-22T19:07:04.901Z,6.40
2019-05-22T19:12:07.165Z,5.17
2019-05-22T19:17:09.597Z,5.83
2019-05-22T19:22:12.519Z,5.80
2019-05-22T19:27:14.882Z,5.87
2019-05-22T19:32:17.796Z,6.33
2019-05-22T19:37:20.192Z,6.42
2019-05-22T19:42:22.545Z,5.75
2019-05-22T19:47:25.175Z,6.40
2019-05-22T19:52:40.958Z,6.33
2019-05-22T19:57:32.378Z,6.55
2019-05-22T20:02:35.015Z,6.50
2019-05-22T20:07:38.779Z,6.87
2019-05-22T20:12:41.143Z,7.17
2019-05-22T20:17:43.511Z,10.00
2019-05-22T20:22:46.356Z,10.03
2019-05-22T20:27:48.935Z,9.03
2019-05-22T20:32:51.307Z,8.40
2019-05-22T20:37:53.925Z,8.97
2019-05-22T20:42:56.551Z,8.70
2019-05-22T20:48:06.226Z,8.37
2019-05-22T20:53:10.735Z,7.57
2019-05-22T20:58:14.214Z,7.90
2019-05-22T21:03:17.471Z,9.13
2019-05-22T21:08:19.957Z,8.80
2019-05-22T21:13:23.724Z,9.03
2019-05-22T21:18:28.207Z,10.68
2019-05-22T21:23:31.030Z,9.47
2019-05-22T21:28:33.486Z,9.73
2019-05-22T21:33:37.720Z,10.00
2019-05-22T21:38:40.283Z,10.00
2019-05-22T21:43:43.281Z,9.73
2019-05-22T21:48:47.952Z,9.83
2019-05-22T21:53:50.294Z,9.00
2019-05-22T21:58:53.135Z,9.23
2019-05-22T22:04:07.406Z,9.27
2019-05-22T22:09:12.015Z,9.10
2019-05-22T22:14:15.931Z,9.53
2019-05-22T22:19:20.227Z,9.00
2019-05-22T22:24:23.167Z,9.13
2019-05-22T22:29:27.270Z,9.08
2019-05-22T22:34:32.102Z,8.83
2019-05-22T22:39:37.111Z,9.60
2019-05-22T22:44:40.122Z,9.53
2019-05-22T22:49:42.578Z,9.30
2019-05-22T22:54:45.431Z,9.80
2019-05-22T22:59:47.779Z,9.20
2019-05-22T23:04:50.937Z,9.80
2019-05-22T23:09:53.538Z,10.53
2019-05-22T23:14:57.357Z,9.73
2019-05-22T23:19:59.818Z,11.13
2019-05-22T23:25:02.530Z,10.63
2019-05-22T23:30:06.446Z,10.77
2019-05-22T23:35:09.472Z,10.10
2019-05-22T23:40:13.299Z,10.00
2019-05-22T23:45:19.971Z,9.93
2019-05-22T23:50:23.031Z,10.18
2019-05-22T23:55:25.810Z,10.47
